Terminal Aerodrome Forecast
Issued by NWS Dodge City, KS

Home | Current Version | Previous Version | Text Only | Print | Product List | Glossary On
Versions: 1 2 3 4 5 6 7 8 9 10 11 12 13 14 15 16 17 18 19 20 21 22 23 24 25 26 27 28 29 30 31 32 33 34 35 36 37 38 39 40 41 42 43 44 45 46 47 48 49
000
FTUS43 KDDC 291723
TAFDDC
TAF
KDDC 291723Z 2918/3018 VRB06KT P6SM VCSH OVC040
      TEMPO 2918/2922 4SM -RA BR
     FM292200 15007KT P6SM VCTS OVC040CB
     FM300600 15007KT P6SM VCTS OVC015CB=

USA.gov is the U.S. government's official web portal to all federal, state and local government web resources and services.